createdAt,value
2023-03-16T00:00:14.815Z,1.59
2023-03-16T00:01:18.278Z,1.64
2023-03-16T00:02:21.463Z,1.68
2023-03-16T00:03:24.895Z,1.72
2023-03-16T00:04:28.230Z,1.65
2023-03-16T00:05:32.460Z,1.64
2023-03-16T00:06:37.399Z,1.65
2023-03-16T00:07:42.389Z,1.69
2023-03-16T00:08:45.625Z,1.64
2023-03-16T00:09:48.668Z,1.50
2023-03-16T00:10:54.685Z,1.55
2023-03-16T00:11:59.187Z,1.62
2023-03-16T00:13:03.028Z,1.50
2023-03-16T00:14:06.038Z,1.43
2023-03-16T00:15:09.354Z,1.33
2023-03-16T00:16:17.411Z,1.27
2023-03-16T00:17:21.798Z,1.36
2023-03-16T00:18:27.618Z,1.34
2023-03-16T00:19:30.528Z,1.21
2023-03-16T00:20:34.399Z,1.33
2023-03-16T00:21:37.450Z,1.27
2023-03-16T00:22:42.223Z,1.06
2023-03-16T00:23:45.405Z,1.04
2023-03-16T00:24:49.020Z,1.12
2023-03-16T00:25:54.437Z,1.10
2023-03-16T00:26:57.733Z,0.93
2023-03-16T00:28:04.025Z,0.88
2023-03-16T00:29:07.173Z,0.84
2023-03-16T00:30:11.981Z,0.90
2023-03-16T00:31:15.569Z,0.89
2023-03-16T00:32:20.784Z,0.90
2023-03-16T00:33:23.860Z,1.03
2023-03-16T00:34:30.408Z,1.01
2023-03-16T00:35:35.168Z,0.91
2023-03-16T00:36:38.766Z,0.88
2023-03-16T00:37:43.934Z,0.92
2023-03-16T00:38:48.623Z,0.96
2023-03-16T00:39:56.584Z,0.88
2023-03-16T00:40:59.897Z,0.89
2023-03-16T00:42:03.491Z,0.83
2023-03-16T00:43:06.704Z,1.03
2023-03-16T00:44:10.075Z,0.99
2023-03-16T00:45:13.357Z,0.84
2023-03-16T00:46:18.401Z,0.80
2023-03-16T00:47:21.958Z,0.90
2023-03-16T00:48:25.321Z,1.03
2023-03-16T00:49:29.014Z,1.01
2023-03-16T00:50:32.304Z,1.07
2023-03-16T00:51:35.785Z,0.98
2023-03-16T00:52:39.075Z,0.95
2023-03-16T00:53:44.092Z,0.94
2023-03-16T00:54:47.852Z,0.93
2023-03-16T00:55:50.952Z,1.04
2023-03-16T00:56:54.245Z,1.04
2023-03-16T00:57:57.400Z,0.99
2023-03-16T00:59:05.931Z,0.86
2023-03-16T01:00:13.248Z,0.83
2023-03-16T01:01:19.823Z,0.81
2023-03-16T01:02:24.922Z,0.78
2023-03-16T01:03:28.361Z,0.76
2023-03-16T01:04:32.734Z,0.89
2023-03-16T01:05:40.833Z,0.77
2023-03-16T01:06:44.893Z,0.69
2023-03-16T01:07:48.205Z,0.85
2023-03-16T01:08:52.854Z,0.95
2023-03-16T01:09:56.169Z,0.91
2023-03-16T01:11:10.776Z,0.80
2023-03-16T01:12:16.543Z,0.86
2023-03-16T01:13:19.548Z,0.77
2023-03-16T01:14:23.062Z,0.69
2023-03-16T01:15:26.690Z,0.74
2023-03-16T01:16:30.359Z,0.75
2023-03-16T01:17:35.503Z,0.68
2023-03-16T01:18:39.061Z,0.48
2023-03-16T01:19:42.676Z,0.41
2023-03-16T01:20:51.016Z,0.43
2023-03-16T01:21:54.274Z,0.38
2023-03-16T01:22:57.620Z,0.42
2023-03-16T01:24:00.991Z,0.33
2023-03-16T01:25:04.413Z,0.20
2023-03-16T01:26:08.690Z,0.20
2023-03-16T01:27:13.330Z,0.11
2023-03-16T01:28:16.388Z,0.13
2023-03-16T01:29:19.602Z,0.20
2023-03-16T01:30:22.706Z,0.40
2023-03-16T01:31:25.980Z,0.37
2023-03-16T01:32:29.102Z,0.39
2023-03-16T01:33:33.980Z,0.22
2023-03-16T01:34:37.110Z,0.08
2023-03-16T01:35:40.255Z,-0.02
2023-03-16T01:36:44.645Z,0.01
2023-03-16T01:37:47.969Z,-0.01
2023-03-16T01:38:51.527Z,-0.01
2023-03-16T01:39:54.689Z,0.03
2023-03-16T01:40:57.990Z,0.06
2023-03-16T01:42:01.103Z,0.00
2023-03-16T01:43:05.361Z,0.00
2023-03-16T01:44:14.572Z,-0.02
2023-03-16T01:45:56.639Z,0.02
2023-03-16T01:46:59.801Z,0.01
2023-03-16T01:48:03.401Z,0.06
2023-03-16T01:49:20.764Z,0.08
2023-03-16T01:50:23.987Z,0.11
2023-03-16T01:51:56.639Z,0.08
2023-03-16T01:52:59.863Z,0.12
2023-03-16T01:54:15.746Z,0.21
2023-03-16T01:55:19.046Z,0.13
2023-03-16T01:56:35.010Z,0.09
2023-03-16T01:57:44.236Z,0.09
2023-03-16T01:58:47.833Z,0.11
2023-03-16T02:00:19.226Z,0.16
2023-03-16T02:01:22.485Z,0.07
2023-03-16T02:02:32.339Z,-0.05
2023-03-16T02:03:35.579Z,-0.04
2023-03-16T02:05:02.417Z,-0.02
2023-03-16T02:06:20.932Z,0.05
2023-03-16T02:07:28.090Z,-0.04
2023-03-16T02:08:32.788Z,-0.03
2023-03-16T02:09:39.994Z,0.04
2023-03-16T02:10:45.357Z,0.09
2023-03-16T02:11:49.302Z,-0.01
2023-03-16T02:12:53.748Z,-0.04
2023-03-16T02:14:03.083Z,-0.03
2023-03-16T02:15:06.976Z,-0.06
2023-03-16T02:16:10.485Z,-0.01
2023-03-16T02:17:15.523Z,-0.09
2023-03-16T02:18:19.720Z,-0.10
2023-03-16T02:19:53.307Z,-0.10
2023-03-16T02:21:16.623Z,-0.05
2023-03-16T02:22:20.683Z,-0.04
2023-03-16T02:23:25.731Z,-0.06
2023-03-16T02:24:29.116Z,-0.10
2023-03-16T02:25:48.909Z,0.09
2023-03-16T02:27:05.139Z,-0.06
2023-03-16T02:28:29.607Z,-0.14
2023-03-16T02:29:57.270Z,-0.21
2023-03-16T02:31:02.471Z,-0.20
2023-03-16T02:32:06.495Z,-0.08
2023-03-16T02:33:10.428Z,-0.10
2023-03-16T02:34:16.086Z,-0.16
2023-03-16T02:35:20.506Z,-0.24
2023-03-16T02:36:23.542Z,-0.08
2023-03-16T02:37:27.732Z,-0.17
2023-03-16T02:38:31.918Z,-0.14
2023-03-16T02:39:35.731Z,0.05
2023-03-16T02:40:39.253Z,-0.03
2023-03-16T02:41:42.620Z,-0.07
2023-03-16T02:42:45.691Z,-0.10
2023-03-16T02:43:53.853Z,-0.19
2023-03-16T02:44:59.698Z,-0.16
2023-03-16T02:46:05.533Z,-0.21
2023-03-16T02:47:17.170Z,-0.22
2023-03-16T02:48:33.714Z,-0.16
2023-03-16T02:49:44.221Z,-0.13
2023-03-16T02:50:50.348Z,-0.19
2023-03-16T02:51:54.071Z,-0.19
2023-03-16T02:52:57.184Z,-0.11
2023-03-16T02:54:00.321Z,-0.05
2023-03-16T02:55:04.923Z,-0.19
2023-03-16T02:56:08.300Z,-0.14
2023-03-16T02:57:11.561Z,-0.09
2023-03-16T02:58:16.026Z,-0.20
2023-03-16T02:59:19.231Z,-0.08
2023-03-16T03:00:22.708Z,0.07
2023-03-16T03:01:26.145Z,0.02
2023-03-16T03:02:29.343Z,-0.02
2023-03-16T03:03:34.823Z,-0.04
2023-03-16T03:04:37.936Z,-0.01
2023-03-16T03:05:41.059Z,-0.09
2023-03-16T03:06:44.678Z,-0.25
2023-03-16T03:07:48.094Z,-0.20
2023-03-16T03:08:51.787Z,-0.16
2023-03-16T03:09:55.770Z,-0.16
2023-03-16T03:10:59.421Z,-0.27
2023-03-16T03:12:02.668Z,-0.25
2023-03-16T03:13:07.765Z,-0.15
2023-03-16T03:14:11.255Z,-0.25
2023-03-16T03:15:15.027Z,-0.23
2023-03-16T03:16:18.126Z,-0.20
2023-03-16T03:17:21.325Z,-0.13
2023-03-16T03:18:34.932Z,-0.21
2023-03-16T03:19:38.316Z,-0.16
2023-03-16T03:20:41.959Z,-0.24
2023-03-16T03:21:45.370Z,-0.28
2023-03-16T03:22:50.290Z,-0.21
2023-03-16T03:23:54.126Z,-0.16
2023-03-16T03:24:57.220Z,-0.17
2023-03-16T03:26:00.531Z,-0.10
2023-03-16T03:27:06.400Z,-0.10
2023-03-16T03:28:09.816Z,-0.09
2023-03-16T03:29:12.957Z,-0.12
2023-03-16T03:30:21.799Z,-0.22
2023-03-16T03:31:25.095Z,-0.20
2023-03-16T03:32:28.370Z,-0.15
2023-03-16T03:33:33.957Z,-0.15
2023-03-16T03:34:37.788Z,-0.22
2023-03-16T03:35:42.505Z,-0.33
2023-03-16T03:36:45.564Z,-0.36
2023-03-16T03:37:48.660Z,-0.31
2023-03-16T03:38:51.844Z,-0.26
2023-03-16T03:39:55.180Z,-0.28
2023-03-16T03:41:01.075Z,-0.16
2023-03-16T03:42:04.580Z,-0.15
2023-03-16T03:43:07.512Z,-0.09
2023-03-16T03:44:11.153Z,-0.16
2023-03-16T03:45:15.161Z,-0.27
2023-03-16T03:46:18.427Z,-0.24
2023-03-16T03:47:21.578Z,-0.20
2023-03-16T03:48:25.218Z,-0.25
2023-03-16T03:49:28.342Z,-0.27
2023-03-16T03:50:31.542Z,-0.28
2023-03-16T03:51:34.829Z,-0.21
2023-03-16T03:52:38.151Z,-0.07
2023-03-16T03:53:41.507Z,0.05
2023-03-16T03:54:44.645Z,0.07
2023-03-16T03:55:50.127Z,-0.08
2023-03-16T03:56:53.387Z,-0.20
2023-03-16T03:57:56.452Z,-0.20
2023-03-16T03:58:59.948Z,-0.28
2023-03-16T04:00:03.501Z,-0.25
2023-03-16T04:01:07.404Z,-0.08
2023-03-16T04:02:11.609Z,-0.10
2023-03-16T04:03:15.334Z,-0.24
2023-03-16T04:04:18.463Z,-0.20
2023-03-16T04:05:22.237Z,-0.19
2023-03-16T04:06:25.440Z,-0.06
2023-03-16T04:07:28.467Z,-0.09
2023-03-16T04:08:31.670Z,-0.17
2023-03-16T04:09:35.038Z,-0.14
2023-03-16T04:10:38.156Z,-0.01
2023-03-16T04:11:41.354Z,-0.13
2023-03-16T04:12:45.109Z,-0.03
2023-03-16T04:13:48.518Z,-0.10
2023-03-16T04:14:52.004Z,-0.07
2023-03-16T04:15:59.588Z,-0.11
2023-03-16T04:17:05.032Z,-0.36
2023-03-16T04:18:08.564Z,-0.28
2023-03-16T04:19:11.889Z,-0.17
2023-03-16T04:20:19.570Z,-0.17
2023-03-16T04:21:23.674Z,-0.04
2023-03-16T04:22:26.950Z,-0.18
2023-03-16T04:23:35.124Z,-0.24
2023-03-16T04:24:38.204Z,-0.32
2023-03-16T04:25:41.410Z,-0.24
2023-03-16T04:26:45.651Z,-0.08
2023-03-16T04:27:49.300Z,-0.29
2023-03-16T04:28:53.111Z,-0.41
2023-03-16T04:30:00.012Z,-0.51
2023-03-16T04:31:07.623Z,-0.31
2023-03-16T04:32:11.710Z,-0.34
2023-03-16T04:33:15.305Z,-0.35
2023-03-16T04:34:18.401Z,-0.34
2023-03-16T04:35:22.454Z,-0.32
2023-03-16T04:36:25.763Z,-0.20
2023-03-16T04:37:28.997Z,-0.13
2023-03-16T04:38:36.761Z,-0.30
2023-03-16T04:39:40.038Z,-0.41
2023-03-16T04:40:43.359Z,-0.46
2023-03-16T04:41:46.716Z,-0.49
2023-03-16T04:42:49.848Z,-0.42
2023-03-16T04:43:53.002Z,-0.42
2023-03-16T04:44:56.344Z,-0.53
2023-03-16T04:45:59.555Z,-0.58
2023-03-16T04:47:02.823Z,-0.70
2023-03-16T04:48:06.298Z,-0.68
2023-03-16T04:49:10.070Z,-0.68
2023-03-16T04:50:13.715Z,-0.64
2023-03-16T04:51:16.858Z,-0.61
2023-03-16T04:52:20.161Z,-0.70
2023-03-16T04:53:23.371Z,-0.92
2023-03-16T04:54:26.474Z,-0.99
2023-03-16T04:55:29.634Z,-1.02
2023-03-16T04:56:34.227Z,-0.91
2023-03-16T04:57:37.403Z,-0.85
2023-03-16T04:58:40.945Z,-0.87
2023-03-16T04:59:43.988Z,-0.75
2023-03-16T05:00:48.424Z,-0.76
2023-03-16T05:01:51.503Z,-0.84
2023-03-16T05:02:54.747Z,-0.77
2023-03-16T05:03:59.674Z,-0.77
2023-03-16T05:05:04.834Z,-0.65
2023-03-16T05:06:08.112Z,-0.78
2023-03-16T05:07:11.817Z,-0.83
2023-03-16T05:08:14.909Z,-0.67
2023-03-16T05:09:18.045Z,-0.62
2023-03-16T05:10:22.296Z,-0.62
2023-03-16T05:11:25.437Z,-0.75
2023-03-16T05:12:28.569Z,-0.83
2023-03-16T05:13:31.464Z,-0.81
2023-03-16T05:14:36.524Z,-0.79
2023-03-16T05:15:39.700Z,-0.79
2023-03-16T05:16:43.227Z,-0.68
2023-03-16T05:17:46.959Z,-0.71
2023-03-16T05:18:49.992Z,-0.70
2023-03-16T05:19:53.076Z,-0.88
2023-03-16T05:20:58.237Z,-0.86
2023-03-16T05:22:01.308Z,-0.76
2023-03-16T05:23:04.367Z,-0.82
2023-03-16T05:24:08.612Z,-0.75
2023-03-16T05:25:15.489Z,-0.71
2023-03-16T05:26:19.153Z,-0.65
2023-03-16T05:27:22.178Z,-0.67
2023-03-16T05:28:25.220Z,-0.63
2023-03-16T05:29:28.121Z,-0.76
2023-03-16T05:30:31.705Z,-0.84
2023-03-16T05:31:35.236Z,-0.82
2023-03-16T05:32:39.078Z,-0.78
2023-03-16T05:33:42.144Z,-0.70
2023-03-16T05:34:45.109Z,-0.61
2023-03-16T05:35:48.361Z,-0.70
2023-03-16T05:36:51.775Z,-0.78
2023-03-16T05:37:54.818Z,-0.80
2023-03-16T05:38:58.561Z,-0.76
2023-03-16T05:40:01.943Z,-0.70
2023-03-16T05:41:06.109Z,-0.63
2023-03-16T05:42:09.915Z,-0.52
2023-03-16T05:43:13.641Z,-0.41
2023-03-16T05:44:16.836Z,-0.41
2023-03-16T05:45:20.003Z,-0.45
2023-03-16T05:46:23.190Z,-0.42
2023-03-16T05:47:26.354Z,-0.43
2023-03-16T05:48:29.256Z,-0.32
2023-03-16T05:49:32.278Z,-0.35
2023-03-16T05:50:35.332Z,-0.40
2023-03-16T05:51:38.486Z,-0.34
2023-03-16T05:52:41.793Z,-0.36
2023-03-16T05:53:47.265Z,-0.35
2023-03-16T05:54:50.174Z,-0.39
2023-03-16T05:55:53.461Z,-0.36
2023-03-16T05:56:56.863Z,-0.28
2023-03-16T05:57:59.991Z,-0.19
2023-03-16T05:59:02.951Z,-0.14
2023-03-16T06:00:13.507Z,-0.13
2023-03-16T06:01:16.577Z,-0.06
2023-03-16T06:02:19.634Z,-0.04
2023-03-16T06:03:23.205Z,0.00
2023-03-16T06:04:26.332Z,0.02
2023-03-16T06:05:29.919Z,0.05
2023-03-16T06:06:32.907Z,0.06
2023-03-16T06:07:36.183Z,0.10
2023-03-16T06:08:40.081Z,0.17
2023-03-16T06:09:43.061Z,0.18
2023-03-16T06:10:49.516Z,0.26
2023-03-16T06:11:52.493Z,0.35
2023-03-16T06:12:55.625Z,0.35
2023-03-16T06:13:58.519Z,0.39
2023-03-16T06:15:02.800Z,0.33
2023-03-16T06:16:06.817Z,0.34
2023-03-16T06:17:09.886Z,0.42
2023-03-16T06:18:12.860Z,0.51
2023-03-16T06:19:15.870Z,0.56
2023-03-16T06:20:19.399Z,0.64
2023-03-16T06:21:23.784Z,0.71
2023-03-16T06:22:27.004Z,0.74
2023-03-16T06:23:30.207Z,0.78
2023-03-16T06:24:33.163Z,0.88
2023-03-16T06:25:37.744Z,0.98
2023-03-16T06:26:42.037Z,1.07
2023-03-16T06:27:45.213Z,1.15
2023-03-16T06:28:49.281Z,1.19
2023-03-16T06:29:52.257Z,1.23
2023-03-16T06:30:57.513Z,1.34
2023-03-16T06:32:00.420Z,1.43
2023-03-16T06:33:03.407Z,1.50
2023-03-16T06:34:06.485Z,1.64
2023-03-16T06:35:10.458Z,1.72
2023-03-16T06:36:13.861Z,1.79
2023-03-16T06:37:16.803Z,1.90
2023-03-16T06:38:20.472Z,1.98
2023-03-16T06:39:23.602Z,2.03
2023-03-16T06:40:27.626Z,2.02
2023-03-16T06:41:30.812Z,2.05
2023-03-16T06:42:33.972Z,2.11
2023-03-16T06:43:37.105Z,2.22
2023-03-16T06:44:40.201Z,2.36
2023-03-16T06:45:43.807Z,2.40
2023-03-16T06:46:47.077Z,2.43
2023-03-16T06:47:49.889Z,2.68
2023-03-16T06:48:53.221Z,2.69
2023-03-16T06:49:56.264Z,2.70
2023-03-16T06:50:59.421Z,2.79
2023-03-16T06:52:03.872Z,2.84
2023-03-16T06:53:06.997Z,2.88
2023-03-16T06:54:09.939Z,2.94
2023-03-16T06:55:14.653Z,3.15
2023-03-16T06:56:17.748Z,3.21
2023-03-16T06:57:20.768Z,3.30
2023-03-16T06:58:23.782Z,3.32
2023-03-16T06:59:27.250Z,3.30
2023-03-16T07:00:32.016Z,3.46
2023-03-16T07:01:35.249Z,3.53
2023-03-16T07:02:43.947Z,3.62
2023-03-16T07:03:47.386Z,3.57
2023-03-16T07:04:50.921Z,3.77
2023-03-16T07:05:54.401Z,3.75
2023-03-16T07:06:57.467Z,3.61
2023-03-16T07:08:00.581Z,3.54
2023-03-16T07:09:04.229Z,3.62
2023-03-16T07:10:07.737Z,3.76
2023-03-16T07:11:10.764Z,3.96
2023-03-16T07:12:14.199Z,4.11
2023-03-16T07:13:17.716Z,3.87
2023-03-16T07:14:21.452Z,4.01
2023-03-16T07:15:27.123Z,4.18
2023-03-16T07:16:30.278Z,4.30
2023-03-16T07:17:33.364Z,4.33
2023-03-16T07:18:38.300Z,4.52
2023-03-16T07:19:41.383Z,4.74
2023-03-16T07:20:44.679Z,4.78
2023-03-16T07:21:47.779Z,5.08
2023-03-16T07:22:50.846Z,5.22
2023-03-16T07:23:55.978Z,5.21
2023-03-16T07:24:59.447Z,5.30
2023-03-16T07:26:03.883Z,5.57
2023-03-16T07:27:06.913Z,5.62
2023-03-16T07:28:09.886Z,5.73
2023-03-16T07:29:14.741Z,5.59
2023-03-16T07:30:18.071Z,5.72
2023-03-16T07:31:21.235Z,5.90
2023-03-16T07:32:24.767Z,5.91
2023-03-16T07:33:27.685Z,5.98
2023-03-16T07:34:30.974Z,5.86
2023-03-16T07:35:33.831Z,5.83
2023-03-16T07:36:37.033Z,5.97
2023-03-16T07:37:40.202Z,6.25
2023-03-16T07:38:43.478Z,6.32
2023-03-16T07:39:47.077Z,6.10
2023-03-16T07:40:52.564Z,6.11
2023-03-16T07:41:55.680Z,6.15
2023-03-16T07:42:58.704Z,6.28
2023-03-16T07:44:01.738Z,6.47
2023-03-16T07:45:06.243Z,6.49
2023-03-16T07:46:09.363Z,6.67
2023-03-16T07:47:15.308Z,6.45
2023-03-16T07:48:19.209Z,6.59
2023-03-16T07:49:22.937Z,6.46
2023-03-16T07:50:26.286Z,6.39
2023-03-16T07:51:29.581Z,6.68
2023-03-16T07:52:32.576Z,6.91
2023-03-16T07:53:36.076Z,7.05
2023-03-16T07:54:38.931Z,6.90
2023-03-16T07:55:43.190Z,6.85
2023-03-16T07:56:49.544Z,7.09
2023-03-16T07:57:52.996Z,7.11
2023-03-16T07:58:56.058Z,7.37
2023-03-16T07:59:59.579Z,7.32
2023-03-16T08:01:02.514Z,7.64
2023-03-16T08:02:06.179Z,7.89
2023-03-16T08:03:09.673Z,8.11
2023-03-16T08:04:12.868Z,7.82
2023-03-16T08:05:16.454Z,7.85
2023-03-16T08:06:20.012Z,7.95
2023-03-16T08:07:23.205Z,8.17
2023-03-16T08:08:26.335Z,8.30
2023-03-16T08:09:29.386Z,8.49
2023-03-16T08:10:33.985Z,8.13
2023-03-16T08:11:37.088Z,8.25
2023-03-16T08:12:40.177Z,8.34
2023-03-16T08:13:44.217Z,8.24
2023-03-16T08:14:47.300Z,8.49
2023-03-16T08:15:58.986Z,8.04
2023-03-16T08:17:03.080Z,8.12
2023-03-16T08:18:07.629Z,8.41
2023-03-16T08:19:12.197Z,8.61
2023-03-16T08:20:15.830Z,8.81
2023-03-16T08:21:20.460Z,8.97
2023-03-16T08:22:23.987Z,9.60
2023-03-16T08:23:27.125Z,9.55
2023-03-16T08:24:31.335Z,9.05
2023-03-16T08:25:34.748Z,9.25
2023-03-16T08:26:39.585Z,9.33
2023-03-16T08:27:43.326Z,9.27
2023-03-16T08:28:47.899Z,9.08
2023-03-16T08:29:53.883Z,9.10
2023-03-16T08:30:58.802Z,9.21
2023-03-16T08:32:02.203Z,9.26
2023-03-16T08:33:05.806Z,9.47
2023-03-16T08:34:09.378Z,9.30
2023-03-16T08:35:16.878Z,8.93
2023-03-16T08:36:21.379Z,9.21
2023-03-16T08:37:24.415Z,9.15
2023-03-16T08:38:27.498Z,9.23
2023-03-16T08:39:31.352Z,9.31
2023-03-16T08:40:35.191Z,9.61
2023-03-16T08:41:38.317Z,9.92
2023-03-16T08:42:41.758Z,10.14
2023-03-16T08:43:45.026Z,10.31
2023-03-16T08:44:48.655Z,10.02
2023-03-16T08:45:52.677Z,9.98
2023-03-16T08:46:55.516Z,9.89
2023-03-16T08:47:58.980Z,10.43
2023-03-16T08:49:03.023Z,10.57
2023-03-16T08:50:07.553Z,10.59
2023-03-16T08:51:11.838Z,10.26
2023-03-16T08:52:16.183Z,10.06
2023-03-16T08:53:19.181Z,10.44
2023-03-16T08:54:22.699Z,10.48
2023-03-16T08:55:26.781Z,10.41
2023-03-16T08:56:30.723Z,10.18
2023-03-16T08:57:34.264Z,10.57
2023-03-16T08:58:37.739Z,10.92
2023-03-16T08:59:40.806Z,10.82
2023-03-16T09:00:46.438Z,10.23
2023-03-16T09:01:49.916Z,10.15
2023-03-16T09:02:53.485Z,10.45
2023-03-16T09:03:56.874Z,10.36
2023-03-16T09:05:00.129Z,10.89
2023-03-16T09:06:05.161Z,10.86
2023-03-16T09:07:09.910Z,10.67
2023-03-16T09:08:13.127Z,10.76
2023-03-16T09:09:16.641Z,10.76
2023-03-16T09:10:20.366Z,10.72
2023-03-16T09:11:23.907Z,10.98
2023-03-16T09:12:27.433Z,11.19
2023-03-16T09:13:32.057Z,11.74
2023-03-16T09:14:37.488Z,11.65
2023-03-16T09:15:40.689Z,11.33
2023-03-16T09:16:44.600Z,11.71
2023-03-16T09:17:48.629Z,11.57
2023-03-16T09:18:52.832Z,11.42
2023-03-16T09:20:05.415Z,11.40
2023-03-16T09:21:14.718Z,11.20
2023-03-16T09:22:18.694Z,11.30
2023-03-16T09:23:21.696Z,11.44
2023-03-16T09:24:24.898Z,11.79
2023-03-16T09:25:28.400Z,12.30
2023-03-16T09:26:33.309Z,12.39
2023-03-16T09:27:37.067Z,12.93
2023-03-16T09:28:42.437Z,12.87
2023-03-16T09:29:45.613Z,12.73
2023-03-16T09:30:51.045Z,12.60
2023-03-16T09:31:54.299Z,12.53
2023-03-16T09:32:57.927Z,12.92
2023-03-16T09:34:01.026Z,12.62
2023-03-16T09:35:06.468Z,12.59
2023-03-16T09:36:12.008Z,12.37
2023-03-16T09:37:16.889Z,12.97
2023-03-16T09:38:20.372Z,12.75
2023-03-16T09:39:23.737Z,12.77
2023-03-16T09:40:30.842Z,13.12
2023-03-16T09:41:48.925Z,12.59
2023-03-16T09:43:15.872Z,12.15
2023-03-16T09:44:34.165Z,12.56
2023-03-16T09:45:58.661Z,13.06
2023-03-16T09:47:05.198Z,12.85
2023-03-16T09:48:11.049Z,12.71
2023-03-16T09:49:20.098Z,12.62
2023-03-16T09:50:38.173Z,12.83
2023-03-16T09:51:56.950Z,12.80
2023-03-16T09:53:17.310Z,12.71
2023-03-16T09:54:54.112Z,13.00
2023-03-16T09:56:05.012Z,12.43
2023-03-16T09:57:35.012Z,12.83
2023-03-16T09:58:38.636Z,12.97
2023-03-16T09:59:42.432Z,13.26
2023-03-16T10:01:10.211Z,13.47
2023-03-16T10:02:56.297Z,13.47
2023-03-16T10:04:15.861Z,13.41
2023-03-16T10:05:25.367Z,13.68
2023-03-16T10:06:29.162Z,13.50
2023-03-16T10:07:43.922Z,13.33
2023-03-16T10:09:04.648Z,13.54
2023-03-16T10:10:44.889Z,13.61
2023-03-16T10:11:54.227Z,13.55
2023-03-16T10:13:01.820Z,13.84
2023-03-16T10:14:33.168Z,14.06
2023-03-16T10:15:39.737Z,13.84
2023-03-16T10:16:55.454Z,13.92
2023-03-16T10:18:07.507Z,14.09
2023-03-16T10:19:17.249Z,13.73
2023-03-16T10:20:23.417Z,13.93
2023-03-16T10:21:26.657Z,14.33
2023-03-16T10:22:35.144Z,14.18
2023-03-16T10:23:40.277Z,14.07
2023-03-16T10:25:16.499Z,14.28
2023-03-16T10:26:26.656Z,14.74
2023-03-16T10:27:38.652Z,13.67
2023-03-16T10:28:43.168Z,14.04
2023-03-16T10:29:47.469Z,14.50
2023-03-16T10:30:52.892Z,14.99
2023-03-16T10:32:02.615Z,14.76
2023-03-16T10:33:26.848Z,14.74
2023-03-16T10:34:31.238Z,14.90
2023-03-16T10:35:51.837Z,14.67
2023-03-16T10:36:55.493Z,14.41
2023-03-16T10:37:58.934Z,14.77
2023-03-16T10:39:08.501Z,14.78
2023-03-16T10:40:13.474Z,15.07
2023-03-16T10:41:20.659Z,14.88
2023-03-16T10:42:25.295Z,14.24
2023-03-16T10:43:29.989Z,14.75
2023-03-16T10:44:39.867Z,14.68
2023-03-16T10:45:43.681Z,15.08
2023-03-16T10:47:05.021Z,15.07
2023-03-16T10:48:08.279Z,15.35
2023-03-16T10:49:36.599Z,15.19
2023-03-16T10:50:39.885Z,15.38
2023-03-16T10:51:44.123Z,14.92
2023-03-16T10:52:49.973Z,15.07
2023-03-16T10:53:53.345Z,14.92
2023-03-16T10:55:11.396Z,15.25
2023-03-16T10:56:25.482Z,15.37
2023-03-16T10:57:34.083Z,15.24
2023-03-16T10:58:42.799Z,14.97
2023-03-16T10:59:50.485Z,15.14
2023-03-16T11:00:53.844Z,14.91
2023-03-16T11:02:14.573Z,15.14
2023-03-16T11:03:39.040Z,15.20
2023-03-16T11:04:42.213Z,15.43
2023-03-16T11:05:45.281Z,15.09
2023-03-16T11:06:57.286Z,15.18
2023-03-16T11:08:22.109Z,15.27
2023-03-16T11:09:28.068Z,14.55
2023-03-16T11:10:40.443Z,15.18
2023-03-16T11:11:50.154Z,15.34
2023-03-16T11:12:53.082Z,15.17
2023-03-16T11:13:59.882Z,15.78
2023-03-16T11:15:29.359Z,16.07
2023-03-16T11:16:41.778Z,15.47
2023-03-16T11:17:49.978Z,15.51
2023-03-16T11:18:57.812Z,15.52
2023-03-16T11:20:08.753Z,15.63
2023-03-16T11:21:23.267Z,16.02
2023-03-16T11:22:27.973Z,15.51
2023-03-16T11:23:34.534Z,16.00
2023-03-16T11:25:09.695Z,15.80
2023-03-16T11:26:28.085Z,15.55
2023-03-16T11:27:42.218Z,14.84
2023-03-16T11:28:50.787Z,14.91
2023-03-16T11:30:18.834Z,15.04
2023-03-16T11:31:50.411Z,15.97
2023-03-16T11:32:54.541Z,16.24
2023-03-16T11:33:57.831Z,16.02
2023-03-16T11:35:00.774Z,16.59
2023-03-16T11:36:36.084Z,15.93
2023-03-16T11:37:58.159Z,15.36
2023-03-16T11:39:14.428Z,16.00
2023-03-16T11:40:26.604Z,16.03
2023-03-16T11:41:55.833Z,16.12
2023-03-16T11:43:27.850Z,16.30
2023-03-16T11:44:44.025Z,16.57
2023-03-16T11:46:02.108Z,16.50
2023-03-16T11:47:24.022Z,16.59
2023-03-16T11:48:53.705Z,17.43
2023-03-16T11:50:47.372Z,17.22
2023-03-16T11:52:02.697Z,16.55
2023-03-16T11:53:23.030Z,16.14
2023-03-16T11:54:37.737Z,16.64
2023-03-16T11:56:03.682Z,16.54
2023-03-16T11:57:31.678Z,15.95
2023-03-16T11:58:56.225Z,16.27
2023-03-16T12:00:36.717Z,16.07
2023-03-16T12:02:00.992Z,15.85
2023-03-16T12:03:26.156Z,16.04
2023-03-16T12:04:38.292Z,16.08
2023-03-16T12:05:57.439Z,15.45
2023-03-16T12:07:05.307Z,15.28
2023-03-16T12:08:50.274Z,15.29
2023-03-16T12:10:19.097Z,15.09
2023-03-16T12:11:56.686Z,15.69
2023-03-16T12:13:11.135Z,16.43
2023-03-16T12:14:17.229Z,15.64
2023-03-16T12:15:36.334Z,14.79
2023-03-16T12:16:49.394Z,14.85
2023-03-16T12:18:01.023Z,15.03
2023-03-16T12:19:07.566Z,15.01
2023-03-16T12:21:04.363Z,15.16
2023-03-16T12:22:33.217Z,15.36
2023-03-16T12:24:09.292Z,16.14
2023-03-16T12:25:22.508Z,16.96
2023-03-16T12:26:30.567Z,16.76
2023-03-16T12:27:38.007Z,16.92
2023-03-16T12:28:42.570Z,16.33
2023-03-16T12:30:25.886Z,15.90
2023-03-16T12:31:41.891Z,15.23
2023-03-16T12:33:16.943Z,14.93
2023-03-16T12:34:32.290Z,15.02
2023-03-16T12:36:03.013Z,13.98
2023-03-16T12:37:18.555Z,13.82
2023-03-16T12:38:21.554Z,14.18
2023-03-16T12:39:43.960Z,14.71
2023-03-16T12:41:29.393Z,15.08
2023-03-16T12:42:53.151Z,15.37
2023-03-16T12:44:15.413Z,15.55
2023-03-16T12:45:21.149Z,15.89
2023-03-16T12:46:53.815Z,15.33
2023-03-16T12:48:22.613Z,15.98
2023-03-16T12:49:26.797Z,15.99
2023-03-16T12:50:30.528Z,16.13
2023-03-16T12:51:42.502Z,16.24
2023-03-16T12:52:51.568Z,16.17
2023-03-16T12:53:55.745Z,16.09
2023-03-16T12:55:15.624Z,16.43
2023-03-16T12:56:21.714Z,16.19
2023-03-16T12:57:27.398Z,15.45
2023-03-16T12:58:30.728Z,16.07
2023-03-16T12:59:44.309Z,15.85
2023-03-16T13:00:57.550Z,16.06
2023-03-16T13:02:04.259Z,16.04
2023-03-16T13:03:22.534Z,16.01
2023-03-16T13:04:35.981Z,16.29
2023-03-16T13:05:47.984Z,15.24
2023-03-16T13:07:02.144Z,15.79
2023-03-16T13:08:12.439Z,15.59
2023-03-16T13:09:22.247Z,15.64
2023-03-16T13:10:26.088Z,16.02
2023-03-16T13:11:29.608Z,16.06
2023-03-16T13:12:37.616Z,15.69
2023-03-16T13:14:00.445Z,15.62
2023-03-16T13:15:26.749Z,15.19
2023-03-16T13:16:32.437Z,15.20
2023-03-16T13:17:37.887Z,14.98
2023-03-16T13:18:45.504Z,15.01
2023-03-16T13:20:31.125Z,14.72
2023-03-16T13:21:38.687Z,15.06
2023-03-16T13:22:51.555Z,14.68
2023-03-16T13:23:58.713Z,14.61
2023-03-16T13:25:31.235Z,14.47
2023-03-16T13:26:42.385Z,14.53
2023-03-16T13:27:54.801Z,14.91
2023-03-16T13:28:58.101Z,15.32
2023-03-16T13:30:16.603Z,15.17
2023-03-16T13:31:36.377Z,15.19
2023-03-16T13:32:40.320Z,14.96
2023-03-16T13:33:43.554Z,14.78
2023-03-16T13:34:53.125Z,15.28
2023-03-16T13:35:59.478Z,15.27
2023-03-16T13:37:02.881Z,15.32
2023-03-16T13:38:07.497Z,15.46
2023-03-16T13:39:21.002Z,15.64
2023-03-16T13:40:27.895Z,15.66
2023-03-16T13:41:31.600Z,15.34
2023-03-16T13:42:34.943Z,15.21
2023-03-16T13:43:42.815Z,14.96
2023-03-16T13:44:46.249Z,15.20
2023-03-16T13:45:49.489Z,15.11
2023-03-16T13:46:52.790Z,14.62
2023-03-16T13:47:55.919Z,14.09
2023-03-16T13:49:02.632Z,14.03
2023-03-16T13:50:06.468Z,14.11
2023-03-16T13:51:24.157Z,13.53
2023-03-16T13:52:35.281Z,13.95
2023-03-16T13:53:41.220Z,14.16
2023-03-16T13:54:44.454Z,14.43
2023-03-16T13:55:48.272Z,14.51
2023-03-16T13:56:53.324Z,14.42
2023-03-16T13:57:56.937Z,13.82
2023-03-16T13:59:00.104Z,13.61
2023-03-16T14:00:25.155Z,13.69
2023-03-16T14:01:31.598Z,14.27
2023-03-16T14:02:43.964Z,14.00
2023-03-16T14:03:49.350Z,14.11
2023-03-16T14:04:52.622Z,14.20
2023-03-16T14:05:57.747Z,14.22
2023-03-16T14:07:03.898Z,14.30
2023-03-16T14:08:24.984Z,14.10
2023-03-16T14:09:37.141Z,13.83
2023-03-16T14:10:40.672Z,14.03
2023-03-16T14:11:44.920Z,13.75
2023-03-16T14:12:56.364Z,13.68
2023-03-16T14:14:00.848Z,14.00
2023-03-16T14:15:06.455Z,14.10
2023-03-16T14:16:18.535Z,13.58
2023-03-16T14:17:24.382Z,13.44
2023-03-16T14:18:41.759Z,13.25
2023-03-16T14:19:53.298Z,13.21
2023-03-16T14:20:56.397Z,13.39
2023-03-16T14:22:07.116Z,13.67
2023-03-16T14:23:20.702Z,13.65
2023-03-16T14:24:35.017Z,13.55
2023-03-16T14:25:38.004Z,13.39
2023-03-16T14:26:48.376Z,13.21
2023-03-16T14:28:02.855Z,13.05
2023-03-16T14:29:25.346Z,12.41
2023-03-16T14:30:31.082Z,12.24
2023-03-16T14:31:40.010Z,12.16
2023-03-16T14:33:01.606Z,12.17
2023-03-16T14:34:10.891Z,12.47
2023-03-16T14:35:17.140Z,12.23
2023-03-16T14:36:20.990Z,12.71
2023-03-16T14:37:35.817Z,12.46
2023-03-16T14:38:40.936Z,12.29